• Join FlightAware (Why Join?)
  • Login
  • US Flag 
03:43AM EDT


 

Airport Tracker/Info


-or-


 

Live Flight TrackerFlight Track Log ✈ ASQ4577 ✈ 17-May-2013 ✈ KDEN - KCLE

Flight Track Log - Related Links

Times and Time Zones

All times are in EDT time to prevent confusion due to time zone crossing. See the ASQ4577 flight status page for this flight to view local times or setup timezone preferences in your user account.

Time Position Orientation Groundspeed Altitude Reporting Facility
EDT Latitude Longitude Course Direction KTS MPH feet Rate Location/Type
03:54PM 39.8000 -104.6167 142° Southeast 195 224 7,200  Level Denver TRACON
03:55PM 39.7500 -104.5667 142° Southeast 234 269 8,400 1,260 Climbing Denver TRACON
03:56PM 39.7381 -104.5608 159° South 226 260 8,800 1,200 Climbing Denver Center
03:57PM 39.6789 -104.5039 143° Southeast 259 298 10,000 1,320 Climbing Denver Center
03:58PM 39.6472 -104.3961 111° Southeast 310 357 11,600 960 Climbing Denver Center
03:59PM 39.6481 -104.2742 89° East 337 388 12,100 240 Climbing Denver Center
04:00PM 39.6531 -104.1300 87° East 368 423 12,100 540 Level Denver Center
04:01PM 39.6919 -104.0133 67° East 368 423 13,300 1,500 Climbing Denver Center
04:02PM 39.7647 -103.9081 48° Northeast 366 421 15,200 1,680 Climbing Denver Center
04:03PM 39.8342 -103.8072 48° Northeast 374 430 16,800 1,560 Climbing Denver Center
04:04PM 39.8858 -103.7025 57° Northeast 357 411 18,500 1,560 Climbing Denver Center
04:05PM 39.9033 -103.5517 81° East 376 433 20,100 1,200 Climbing Denver Center
04:06PM 39.9200 -103.4167 81° East 385 443 21,100 960 Climbing Denver Center
04:07PM 39.9350 -103.2761 82° East 405 466 22,200 1,320 Climbing Denver Center
04:08PM 39.9531 -103.1111 82° East 412 474 23,900 1,320 Climbing Denver Center
04:09PM 39.9694 -102.9703 81° East 412 474 25,000 1,140 Climbing Denver Center
04:10PM 39.9867 -102.8033 82° East 417 480 26,300 1,140 Climbing Denver Center
04:11PM 40.0028 -102.6589 82° East 420 483 27,400 1,200 Climbing Denver Center
04:12PM 40.0200 -102.4942 82° East 414 476 28,800 1,260 Climbing Denver Center
04:13PM 40.0344 -102.3533 82° East 411 473 30,100 1,320 Climbing Denver Center
04:14PM 40.0511 -102.1922 82° East 403 464 31,600 1,260 Climbing Denver Center
04:15PM 40.0658 -102.0567 82° East 398 458 32,800 1,080 Climbing Denver Center
04:16PM 40.0806 -101.8969 83° East 398 458 33,900 960 Climbing Denver Center
04:17PM 40.0950 -101.7631 82° East 392 451 34,900 480 Climbing Denver Center
04:18PM 40.1106 -101.6031 83° East 399 459 35,000  Climbing Denver Center
04:19PM 40.1242 -101.4575 83° East 420 483 35,000  Level Denver Center
04:21PM 40.1450 -101.3058 80° East 442 509 35,000  Level Denver Center
04:22PM 40.1833 -101.1281 74° East 456 525 35,000  Level Denver Center
04:23PM 40.2158 -100.9731 75° East 462 532 35,000  Level Denver Center
04:24PM 40.2528 -100.7925 75° East 462 532 35,000  Level Denver Center
04:25PM 40.2839 -100.6372 75° East 464 534 35,000  Level Denver Center
04:26PM 40.3206 -100.4569 75° East 463 533 35,000  Level Denver Center
04:27PM 40.3519 -100.3014 75° East 463 533 35,000  Level Denver Center
04:28PM 40.3881 -100.1217 75° East 461 531 35,000  Level Denver Center
04:29PM 40.4189 -99.9661 75° East 461 531 35,000  Level Denver Center
04:30PM 40.4508 -99.8031 76° East 458 527 35,000  Level Denver Center
04:31PM 40.4825 -99.6400 76° East 461 531 35,000  Level Denver Center
04:32PM 40.5078 -99.5117 75° East 457 526 35,000  Level Denver Center
04:33PM 40.5506 -99.2850 76° East 457 526 35,000  Level Denver Center
04:34PM 40.5814 -99.1239 76° East 458 527 35,000  Level Minneapolis Center
04:35PM 40.6114 -98.9622 76° East 458 527 35,000  Level Minneapolis Center
04:36PM 40.6425 -98.8003 76° East 459 528 35,000  Level Minneapolis Center
04:37PM 40.6722 -98.6375 76° East 461 531 35,000  Level Minneapolis Center
04:38PM 40.7014 -98.4747 77° East 461 531 35,000  Level Minneapolis Center
04:39PM 40.7369 -98.2803 76° East 459 528 35,000  Level Minneapolis Center
04:40PM 40.7661 -98.1186 77° East 458 527 35,000  Level Minneapolis Center
04:41PM 40.7956 -97.9556 77° East 459 528 35,000  Level Minneapolis Center
04:42PM 40.8239 -97.7928 77° East 457 526 35,000  Level Minneapolis Center
04:43PM 40.8525 -97.6303 77° East 456 525 35,000  Level Minneapolis Center
04:44PM 40.8806 -97.4669 77° East 457 526 35,000  Level Minneapolis Center
04:45PM 40.9108 -97.2953 77° East 459 528 35,000  Level Minneapolis Center
04:46PM 40.9381 -97.1319 78° East 458 527 35,000  Level Minneapolis Center
04:47PM 40.9714 -96.9358 77° East 457 526 35,000  Level Minneapolis Center
04:48PM 40.9983 -96.7714 78° East 458 527 35,000  Level Minneapolis Center
04:49PM 41.0267 -96.6078 77° East 458 527 35,000  Level Minneapolis Center
04:50PM 41.0528 -96.4436 78° East 458 527 35,000  Level Minneapolis Center
04:51PM 41.0794 -96.2817 78° East 456 525 35,000  Level Minneapolis Center
04:52PM 41.1106 -96.0867 78° East 458 527 35,000  Level Minneapolis Center
04:54PM 41.1372 -95.9219 78° East 464 534 35,000  Level Minneapolis Center
04:55PM 41.1631 -95.7589 78° East 454 522 35,000  Level Minneapolis Center
04:56PM 41.1861 -95.5978 79° East 457 526 35,000  Level Minneapolis Center
04:57PM 41.2100 -95.4336 79° East 456 525 35,000  Level Minneapolis Center
04:58PM 41.2392 -95.2356 79° East 457 526 35,000  Level Minneapolis Center
04:59PM 41.2608 -95.0697 80° East 458 527 35,000  Level Minneapolis Center
05:00PM 41.2842 -94.9042 79° East 457 526 35,000  Level Minneapolis Center
05:01PM 41.3061 -94.7389 80° East 457 526 35,000  Level Minneapolis Center
05:02PM 41.3275 -94.5722 80° East 457 526 35,000  Level Minneapolis Center
05:03PM 41.3561 -94.3714 79° East 460 529 35,000  Level Minneapolis Center
05:04PM 41.3781 -94.2053 80° East 458 527 35,000  Level Minneapolis Center
05:05PM 41.3964 -94.0617 80° East 457 526 35,000  Level Minneapolis Center
05:06PM 41.4211 -93.8633 80° East 456 525 35,000  Level Minneapolis Center
05:07PM 41.4483 -93.6631 80° East 459 528 35,000  Level Minneapolis Center
05:09PM 41.4908 -93.3267 80° East 464 534 35,000  Level Minneapolis Center
05:10PM 41.5106 -93.1589 81° East 462 532 35,000  Level Minneapolis Center
05:12PM 41.5400 -92.9244 80° East 461 531 35,000  Level Minneapolis Center
05:13PM 41.5597 -92.7564 81° East 461 531 35,000  Level Minneapolis Center
05:14PM 41.5794 -92.5897 81° East 459 528 35,000  Level Minneapolis Center
05:14PM 41.5969 -92.4378 81° East 461 531 35,000  Level Chicago Center
05:15PM 41.6156 -92.2700 82° East 462 532 35,000  Level Chicago Center
05:16PM 41.6347 -92.1014 81° East 464 534 35,000  Level Chicago Center
05:18PM 41.6536 -91.9339 81° East 464 534 35,000  Level Chicago Center
05:19PM 41.6756 -91.7339 82° East 459 528 35,000  Level Chicago Center
05:20PM 41.6942 -91.5656 82° East 461 531 35,000  Level Chicago Center
05:21PM 41.7117 -91.3994 82° East 460 529 35,000  Level Chicago Center
05:22PM 41.7286 -91.2350 82° East 454 522 35,000  Level Chicago Center
05:23PM 41.7450 -91.0714 82° East 450 518 35,000  Level Chicago Center
05:24PM 41.7647 -90.8767 82° East 447 514 35,000  Level Chicago Center
05:25PM 41.7819 -90.7136 82° East 448 516 35,000  Level Chicago Center
05:26PM 41.7978 -90.5492 83° East 450 518 35,000  Level Chicago Center
05:27PM 41.8133 -90.3858 83° East 448 516 35,000  Level Chicago Center
05:28PM 41.8333 -90.1886 82° East 450 518 35,000  Level Chicago Center
05:29PM 41.8486 -90.0244 83° East 450 518 35,000  Level Chicago Center
05:30PM 41.8625 -89.8606 83° East 444 511 35,000  Level Chicago Center
05:31PM 41.8781 -89.6950 83° East 448 516 35,000  Level Chicago Center
05:32PM 41.8928 -89.5300 83° East 449 517 35,000  Level Chicago Center
05:33PM 41.9117 -89.3272 83° East 457 526 35,000  Level Chicago Center
05:34PM 41.9250 -89.1619 84° East 449 517 35,000  Level Chicago Center
05:35PM 41.9392 -88.9953 83° East 452 520 35,000  Level Chicago Center
05:36PM 41.9533 -88.8275 83° East 453 521 35,000  Level Chicago Center
05:37PM 41.9669 -88.6578 84° East 458 527 35,000  Level Chicago Center
05:38PM 41.9789 -88.4556 85° East 453 521 35,000  Level Chicago Center
05:39PM 41.9847 -88.2964 87° East 458 527 35,000  Level Chicago Center
05:40PM 41.9908 -88.1125 87° East 461 531 35,000  Level Chicago Center
05:41PM 41.9953 -87.9408 88° East 459 528 35,000  Level Chicago Center
05:42PM 42.0011 -87.7683 87° East 462 532 35,000  Level Chicago Center
05:43PM 42.0058 -87.5950 88° East 463 533 35,000  Level Chicago Center
05:44PM 42.0111 -87.4236 88° East 460 529 35,000  Level Chicago Center
05:45PM 42.0144 -87.2150 89° East 464 534 35,000  Level Chicago Center
05:46PM 42.0186 -87.0403 88° East 467 537 35,000  Level Chicago Center
05:48PM 42.0231 -86.8683 88° East 464 534 35,000  Level Chicago Center
05:49PM 42.0269 -86.6847 88° East 466 536 35,000  Level Chicago Center
05:50PM 42.0311 -86.5097 88° East 468 539 35,000  Level Chicago Center
05:51PM 42.0342 -86.3336 89° East 470 541 35,000  Level Chicago Center
05:52PM 42.0367 -86.1578 89° East 470 541 35,000  Level Chicago Center
05:53PM 42.0397 -85.9589 89° East 472 543 35,000  Level Chicago Center
05:54PM 42.0422 -85.7828 89° East 474 545 35,000 -420 Level Chicago Center
05:55PM 42.0450 -85.6050 89° East 477 549 34,200 -900 Descending Chicago Center
05:56PM 42.0469 -85.4228 89° East 486 559 33,200 -660 Descending Chicago Center
05:57PM 42.0525 -85.2539 87° East 467 537 33,000 -120 Descending Cleveland Center
05:58PM 42.0514 -85.0747 90° East 467 537 33,000  Level Cleveland Center
05:59PM 42.0519 -84.8928 90° East 473 544 33,000  Level Cleveland Center
06:00PM 42.0544 -84.7139 89° East 479 551 33,000  Level Cleveland Center
06:01PM 42.0525 -84.5319 91° East 479 551 33,000  Level Cleveland Center
06:02PM 42.0544 -84.3531 89° East 479 551 33,000  Level Cleveland Center
06:03PM 42.0503 -84.1572 92° East 479 551 33,000 -420 Level Cleveland Center
06:04PM 42.0494 -83.9753 90° East 479 551 32,200 -1,980 Descending Cleveland Center
06:05PM 42.0464 -83.7933 91° East 479 551 29,100 -3,180 Descending Cleveland Center
06:06PM 42.0450 -83.6142 91° East 479 551 25,900 -2,520 Descending Cleveland Center
06:07PM 42.0433 -83.4325 91° East 479 551 24,100 -960 Descending Cleveland Center
06:08PM 42.0283 -83.2781 97° East 473 544 24,000 -840 Descending Cleveland Center
06:09PM 42.0097 -83.0844 97° East 473 544 22,500 -1,980 Descending Cleveland Center
06:10PM 41.9925 -82.9133 98° East 466 536 20,100 -2,400 Descending Cleveland Center
06:11PM 41.9769 -82.7533 97° East 453 521 17,800 -2,400 Descending Cleveland Center
06:12PM 41.9631 -82.5939 97° East 435 501 15,400 -2,520 Descending Cleveland Center
06:12PM 41.9397 -82.4953 108° East 398 458 13,500 -2,520 Descending Cleveland Center
06:13PM 41.9281 -82.4531 110° East 414 476 12,900 -2,520 Descending Cleveland Center
06:13PM 41.9161 -82.4192 115° Southeast 399 459 12,100 -2,580 Descending Cleveland Center
06:13PM 41.9003 -82.3686 113° Southeast 389 448 11,300 -1,860 Descending Cleveland Center
06:14PM 41.8864 -82.3208 111° Southeast 398 458 10,800 -1,500 Descending Cleveland Center
06:14PM 41.8764 -82.2925 115° Southeast 366 421 10,300 -1,080 Descending Cleveland Center
06:14PM 41.8625 -82.2447 111° Southeast 355 409 10,100 -480 Descending Cleveland Center
06:15PM 41.8483 -82.2028 114° Southeast 375 432 10,000 -180 Descending Cleveland Center
06:15PM 41.8242 -82.1575 126° Southeast 354 407 10,000  Level Cleveland Center
06:16PM 41.7789 -82.1119 143° Southeast 343 395 10,000  Level Cleveland Center
06:16PM 41.7500 -82.0889 149° Southeast 354 407 10,000  Level Cleveland Center
06:17PM 41.6944 -82.0375 145° Southeast 351 404 10,000  Level Cleveland Center
06:17PM 41.6572 -82.0061 148° Southeast 358 412 10,000 -120 Level Cleveland Center
06:18PM 41.6200 -81.9692 143° Southeast 346 398 9,900 -720 Descending Cleveland Center
06:18PM 41.5975 -81.9464 143° Southeast 323 372 9,300 -1,740 Descending Cleveland Center
06:19PM 41.5519 -81.9261 162° South 293 337 8,200 -1,680 Descending Cleveland Center
06:19PM 41.5269 -81.9200 170° South 285 328 7,600 -1,200 Descending Cleveland Center
06:20PM 41.4792 -81.9106 172° South 267 307 7,000 -900 Descending Cleveland Center
06:20PM 41.4561 -81.9214 199° South 268 308 6,700 -1,440 Descending Cleveland Center
06:21PM 41.4264 -81.9678 229° Southwest 228 262 5,600 -1,380 Descending Cleveland Center
06:21PM 41.4133 -81.9953 238° Southwest 258 297 5,300 -1,440 Descending Cleveland Center
06:22PM 41.3817 -82.0361 224° Southwest 235 270 4,200 -1,920 Descending Cleveland Center
06:22PM 41.3464 -82.0269 169° South 233 268 3,400 -900 Descending Cleveland Center
06:23PM 41.3303 -81.9739 112° Southeast 142 163 2,700 -660 Descending Cleveland Center
06:24PM 41.3558 -81.9414 44° Northeast 122 140 2,100 -660 Descending Cleveland Center
06:25PM 41.3792 -81.9058 49° Northeast 124 143 1,400 -720 Descending Cleveland Center
06:27PM 41.4000 -81.8500 46° Northeast  Level FlightAware Approximate